createdAt,value
2023-01-13T00:01:02.764Z,8.20
2023-01-13T00:03:29.368Z,8.30
2023-01-13T00:05:56.019Z,8.20
2023-01-13T00:08:22.608Z,8.10
2023-01-13T00:10:49.314Z,8.20
2023-01-13T00:13:15.898Z,8.10
2023-01-13T00:15:42.579Z,8.10
2023-01-13T00:18:09.332Z,8.10
2023-01-13T00:20:36.029Z,8.10
2023-01-13T00:23:04.429Z,8.10
2023-01-13T00:25:31.056Z,8.10
2023-01-13T00:27:57.706Z,8.10
2023-01-13T00:30:24.352Z,8.10
2023-01-13T00:32:51.060Z,8.00
2023-01-13T00:35:17.674Z,8.10
2023-01-13T00:37:44.258Z,8.10
2023-01-13T00:40:10.935Z,8.10
2023-01-13T00:42:56.426Z,8.00
2023-01-13T00:45:23.048Z,8.00
2023-01-13T00:47:49.628Z,8.00
2023-01-13T00:50:16.260Z,8.00
2023-01-13T00:52:43.040Z,7.90
2023-01-13T00:55:09.627Z,7.90
2023-01-13T00:57:36.303Z,8.00
2023-01-13T01:00:02.889Z,7.90
2023-01-13T01:02:29.518Z,7.90
2023-01-13T01:04:56.205Z,7.90
2023-01-13T01:07:22.899Z,7.90
2023-01-13T01:09:49.503Z,7.80
2023-01-13T01:12:16.096Z,7.80
2023-01-13T01:14:42.715Z,7.90
2023-01-13T01:17:09.300Z,7.80
2023-01-13T01:19:38.723Z,7.80
2023-01-13T01:22:05.281Z,7.90
2023-01-13T01:24:31.908Z,7.80
2023-01-13T01:26:58.547Z,7.80
2023-01-13T01:29:25.203Z,7.80
2023-01-13T01:31:51.820Z,7.80
2023-01-13T01:34:18.458Z,7.80
2023-01-13T01:36:45.059Z,7.70
2023-01-13T01:39:11.709Z,7.70
2023-01-13T01:41:38.350Z,7.70
2023-01-13T01:44:08.010Z,7.60
2023-01-13T01:46:34.703Z,7.70
2023-01-13T01:49:01.354Z,7.70
2023-01-13T01:51:27.996Z,7.60
2023-01-13T01:53:54.595Z,7.70
2023-01-13T01:56:21.179Z,7.60
2023-01-13T01:58:47.874Z,7.60
2023-01-13T02:01:14.590Z,7.60
2023-01-13T02:03:41.307Z,7.60
2023-01-13T02:06:08.020Z,7.60
2023-01-13T02:08:34.640Z,7.50
2023-01-13T02:11:01.225Z,7.60
2023-01-13T02:13:27.861Z,7.50
2023-01-13T02:15:54.441Z,7.60
2023-01-13T02:18:21.089Z,7.60
2023-01-13T02:20:47.672Z,7.50
2023-01-13T02:23:34.226Z,7.60
2023-01-13T02:26:00.806Z,7.50
2023-01-13T02:28:27.466Z,7.50
2023-01-13T02:31:12.924Z,7.50
2023-01-13T02:33:39.631Z,7.60
2023-01-13T02:36:06.222Z,7.50
2023-01-13T02:38:32.848Z,7.50
2023-01-13T02:41:19.445Z,7.50
2023-01-13T02:44:04.687Z,7.50
2023-01-13T02:46:31.293Z,7.60
2023-01-13T02:48:58.050Z,7.60
2023-01-13T02:51:24.710Z,7.60
2023-01-13T02:53:51.316Z,7.50
2023-01-13T02:56:17.915Z,7.60
2023-01-13T02:58:44.582Z,7.60
2023-01-13T03:01:11.290Z,7.60
2023-01-13T03:03:37.988Z,7.50
2023-01-13T03:06:04.608Z,7.50
2023-01-13T03:08:31.244Z,7.50
2023-01-13T03:10:57.887Z,7.60
2023-01-13T03:13:24.471Z,7.60
2023-01-13T03:15:51.059Z,7.60
2023-01-13T03:18:17.690Z,7.50
2023-01-13T03:20:44.305Z,7.50
2023-01-13T03:23:10.895Z,7.50
2023-01-13T03:25:37.460Z,7.50
2023-01-13T03:28:04.132Z,7.50
2023-01-13T03:30:32.553Z,7.50
2023-01-13T03:32:59.186Z,7.50
2023-01-13T03:35:25.805Z,7.50
2023-01-13T03:37:52.383Z,7.50
2023-01-13T03:40:19.004Z,7.50
2023-01-13T03:43:05.570Z,7.50
2023-01-13T03:45:32.202Z,7.50
2023-01-13T03:47:58.802Z,7.50
2023-01-13T03:50:25.407Z,7.50
2023-01-13T03:52:52.030Z,7.50
2023-01-13T03:55:18.745Z,7.50
2023-01-13T03:57:45.477Z,7.50
2023-01-13T04:00:12.165Z,7.40
2023-01-13T04:02:38.723Z,7.50
2023-01-13T04:05:05.316Z,7.40
2023-01-13T04:07:31.922Z,7.40
2023-01-13T04:10:00.201Z,7.50
2023-01-13T04:12:27.000Z,7.50
2023-01-13T04:14:53.654Z,7.50
2023-01-13T04:17:20.252Z,7.50
2023-01-13T04:19:46.882Z,7.50
2023-01-13T04:22:13.499Z,7.50
2023-01-13T04:24:40.174Z,7.60
2023-01-13T04:27:06.796Z,7.60
2023-01-13T04:29:33.438Z,7.70
2023-01-13T04:32:00.017Z,7.70
2023-01-13T04:34:28.390Z,7.70
2023-01-13T04:36:55.194Z,7.70
2023-01-13T04:39:21.845Z,7.60
2023-01-13T04:41:57.796Z,7.60
2023-01-13T04:44:24.403Z,7.50
2023-01-13T04:46:51.036Z,7.50
2023-01-13T04:49:17.698Z,7.50
2023-01-13T04:51:44.298Z,7.50
2023-01-13T04:54:11.277Z,7.50
2023-01-13T04:56:37.946Z,7.50
2023-01-13T04:59:04.533Z,7.50
2023-01-13T05:01:31.193Z,7.40
2023-01-13T05:03:57.882Z,7.40
2023-01-13T05:06:24.460Z,7.40
2023-01-13T05:08:51.164Z,7.40
2023-01-13T05:11:36.628Z,7.40
2023-01-13T05:14:21.704Z,7.40
2023-01-13T05:17:00.301Z,7.40
2023-01-13T05:19:26.969Z,7.40
2023-01-13T05:22:12.292Z,7.40
2023-01-13T05:24:57.566Z,7.40
2023-01-13T05:27:24.167Z,7.40
2023-01-13T05:29:50.785Z,7.40
2023-01-13T05:32:17.422Z,7.40
2023-01-13T05:34:44.079Z,7.40
2023-01-13T05:37:12.082Z,7.40
2023-01-13T05:39:57.607Z,7.40
2023-01-13T05:42:43.045Z,7.50
2023-01-13T05:45:09.637Z,7.40
2023-01-13T05:47:36.222Z,7.50
2023-01-13T05:50:02.851Z,7.50
2023-01-13T05:52:29.442Z,7.40
2023-01-13T05:54:56.065Z,7.40
2023-01-13T05:57:22.743Z,7.40
2023-01-13T05:59:49.386Z,7.40
2023-01-13T06:02:15.995Z,7.30
2023-01-13T06:04:42.758Z,7.30
2023-01-13T06:07:09.457Z,7.30
2023-01-13T06:09:36.070Z,7.30
2023-01-13T06:12:02.679Z,7.30
2023-01-13T06:14:41.580Z,7.30
2023-01-13T06:17:08.227Z,7.30
2023-01-13T06:19:34.910Z,7.30
2023-01-13T06:22:02.423Z,7.30
2023-01-13T06:24:29.049Z,7.30
2023-01-13T06:26:55.645Z,7.30
2023-01-13T06:29:22.324Z,7.30
2023-01-13T06:31:49.041Z,7.30
2023-01-13T06:34:15.765Z,7.30
2023-01-13T06:36:42.505Z,7.40
2023-01-13T06:39:09.119Z,7.30
2023-01-13T06:41:54.727Z,7.30
2023-01-13T06:44:21.350Z,7.40
2023-01-13T06:46:47.992Z,7.40
2023-01-13T06:49:14.739Z,7.40
2023-01-13T06:51:41.429Z,7.40
2023-01-13T06:54:08.834Z,7.40
2023-01-13T06:56:35.536Z,7.40
2023-01-13T06:59:02.140Z,7.50
2023-01-13T07:01:28.915Z,7.50
2023-01-13T07:03:55.673Z,7.50
2023-01-13T07:06:22.293Z,7.50
2023-01-13T07:08:48.911Z,7.50
2023-01-13T07:11:15.663Z,7.60
2023-01-13T07:14:01.105Z,7.60
2023-01-13T07:16:28.265Z,7.60
2023-01-13T07:18:54.979Z,7.70
2023-01-13T07:21:22.117Z,7.70
2023-01-13T07:23:48.787Z,7.80
2023-01-13T07:26:15.480Z,7.80
2023-01-13T07:28:42.059Z,7.80
2023-01-13T07:31:08.766Z,7.80
2023-01-13T07:33:35.414Z,7.80
2023-01-13T07:36:02.165Z,7.70
2023-01-13T07:38:28.814Z,7.80
2023-01-13T07:40:55.449Z,7.70
2023-01-13T07:43:34.339Z,7.70
2023-01-13T07:46:01.039Z,7.70
2023-01-13T07:48:27.797Z,7.60
2023-01-13T07:50:54.461Z,7.60
2023-01-13T07:53:21.172Z,7.60
2023-01-13T07:55:47.772Z,7.60
2023-01-13T07:58:14.417Z,7.60
2023-01-13T08:00:41.053Z,7.60
2023-01-13T08:03:07.752Z,7.60
2023-01-13T08:05:34.471Z,7.60
2023-01-13T08:08:01.172Z,7.60
2023-01-13T08:10:27.843Z,7.60
2023-01-13T08:13:13.222Z,7.60
2023-01-13T08:15:39.835Z,7.60
2023-01-13T08:18:06.457Z,7.60
2023-01-13T08:20:33.163Z,7.70
2023-01-13T08:22:59.798Z,7.70
2023-01-13T08:25:26.599Z,7.70
2023-01-13T08:27:53.323Z,7.70
2023-01-13T08:30:19.935Z,7.70
2023-01-13T08:32:46.519Z,7.60
2023-01-13T08:35:13.152Z,7.70
2023-01-13T08:37:39.893Z,7.60
2023-01-13T08:40:06.532Z,7.50
2023-01-13T08:42:33.151Z,7.60
2023-01-13T08:44:59.933Z,7.60
2023-01-13T08:47:26.942Z,7.70
2023-01-13T08:49:53.626Z,7.60
2023-01-13T08:52:20.553Z,7.60
2023-01-13T08:54:47.237Z,7.70
2023-01-13T08:57:15.297Z,7.70
2023-01-13T08:59:43.454Z,7.80
2023-01-13T09:02:11.496Z,7.80
2023-01-13T09:04:38.272Z,7.80
2023-01-13T09:07:05.066Z,7.70
2023-01-13T09:09:31.934Z,7.80
2023-01-13T09:12:17.437Z,7.80
2023-01-13T09:14:44.015Z,7.90
2023-01-13T09:17:10.647Z,7.90
2023-01-13T09:19:37.406Z,7.90
2023-01-13T09:22:04.131Z,8.00
2023-01-13T09:24:30.770Z,8.00
2023-01-13T09:26:57.440Z,8.00
2023-01-13T09:29:24.064Z,8.00
2023-01-13T09:31:50.690Z,8.00
2023-01-13T09:34:36.053Z,8.10
2023-01-13T09:37:02.717Z,8.10
2023-01-13T09:39:29.403Z,8.20
2023-01-13T09:42:14.786Z,8.20
2023-01-13T09:44:41.442Z,8.20
2023-01-13T09:47:08.092Z,8.30
2023-01-13T09:49:34.711Z,8.20
2023-01-13T09:52:01.349Z,8.30
2023-01-13T09:54:27.992Z,8.30
2023-01-13T09:56:54.646Z,8.40
2023-01-13T09:59:21.362Z,8.30
2023-01-13T10:01:47.944Z,8.40
2023-01-13T10:04:14.916Z,8.40
2023-01-13T10:06:42.726Z,8.40
2023-01-13T10:09:09.411Z,8.50
2023-01-13T10:12:08.485Z,8.50
2023-01-13T10:14:35.163Z,8.50
2023-01-13T10:17:01.834Z,8.50
2023-01-13T10:19:29.345Z,8.60
2023-01-13T10:21:56.031Z,8.60
2023-01-13T10:24:22.788Z,8.60
2023-01-13T10:26:49.417Z,8.70
2023-01-13T10:29:16.066Z,8.70
2023-01-13T10:31:42.683Z,8.70
2023-01-13T10:34:09.344Z,8.80
2023-01-13T10:36:35.969Z,8.80
2023-01-13T10:39:02.615Z,8.80
2023-01-13T10:41:29.336Z,8.90
2023-01-13T10:43:55.973Z,8.90
2023-01-13T10:46:22.714Z,9.00
2023-01-13T10:48:49.378Z,9.00
2023-01-13T10:51:16.009Z,9.00
2023-01-13T10:53:42.634Z,9.10
2023-01-13T10:56:09.274Z,9.10
2023-01-13T10:58:35.916Z,9.10
2023-01-13T11:01:02.842Z,9.10
2023-01-13T11:03:29.531Z,9.10
2023-01-13T11:05:56.160Z,9.10
2023-01-13T11:08:22.809Z,9.20
2023-01-13T11:10:50.142Z,9.20
2023-01-13T11:13:16.792Z,9.20
2023-01-13T11:15:43.461Z,9.20
2023-01-13T11:18:10.157Z,9.30
2023-01-13T11:20:37.074Z,9.30
2023-01-13T11:23:03.786Z,9.40
2023-01-13T11:25:33.841Z,9.40
2023-01-13T11:28:00.831Z,9.40
2023-01-13T11:30:27.515Z,9.40
2023-01-13T11:32:54.146Z,9.40
2023-01-13T11:35:20.792Z,9.50
2023-01-13T11:37:47.551Z,9.50
2023-01-13T11:40:14.307Z,9.50
2023-01-13T11:42:40.997Z,9.60
2023-01-13T11:45:07.666Z,9.60
2023-01-13T11:47:35.012Z,9.60
2023-01-13T11:50:01.763Z,9.70
2023-01-13T11:52:28.499Z,9.70
2023-01-13T11:54:55.126Z,9.80
2023-01-13T11:57:21.772Z,9.90
2023-01-13T11:59:48.398Z,9.90
2023-01-13T12:02:15.319Z,9.80
2023-01-13T12:04:42.216Z,9.90
2023-01-13T12:07:13.094Z,9.90
2023-01-13T12:09:39.721Z,9.90
2023-01-13T12:12:27.651Z,9.90
2023-01-13T12:14:54.349Z,10.00
2023-01-13T12:17:21.280Z,10.00
2023-01-13T12:19:47.934Z,10.00
2023-01-13T12:22:14.584Z,10.10
2023-01-13T12:24:41.258Z,10.20
2023-01-13T12:27:07.945Z,10.20
2023-01-13T12:29:34.602Z,10.10
2023-01-13T12:32:01.401Z,10.10
2023-01-13T12:34:28.074Z,10.30
2023-01-13T12:36:54.708Z,10.20
2023-01-13T12:39:21.329Z,10.20
2023-01-13T12:42:06.955Z,10.10
2023-01-13T12:44:33.660Z,10.10
2023-01-13T12:47:00.370Z,10.10
2023-01-13T12:49:27.039Z,10.10
2023-01-13T12:51:53.686Z,10.10
2023-01-13T12:54:20.294Z,10.10
2023-01-13T12:56:47.078Z,10.10
2023-01-13T12:59:13.700Z,10.10
2023-01-13T13:01:40.511Z,10.10
2023-01-13T13:04:07.286Z,10.10
2023-01-13T13:06:33.893Z,10.10
2023-01-13T13:09:03.303Z,10.10
2023-01-13T13:11:49.323Z,10.00
2023-01-13T13:14:15.938Z,10.10
2023-01-13T13:16:42.611Z,10.10
2023-01-13T13:19:09.301Z,10.10
2023-01-13T13:21:35.904Z,10.20
2023-01-13T13:24:03.183Z,10.20
2023-01-13T13:26:30.970Z,10.30
2023-01-13T13:28:57.591Z,10.30
2023-01-13T13:31:24.333Z,10.30
2023-01-13T13:33:50.977Z,10.40
2023-01-13T13:36:17.642Z,10.30
2023-01-13T13:39:03.102Z,10.20
2023-01-13T13:41:48.378Z,10.10
2023-01-13T13:44:33.834Z,10.10
2023-01-13T13:47:00.418Z,10.10
2023-01-13T13:49:27.076Z,10.10
2023-01-13T13:51:53.756Z,10.20
2023-01-13T13:54:20.519Z,10.20
2023-01-13T13:56:47.156Z,10.20
2023-01-13T13:59:13.862Z,10.30
2023-01-13T14:01:40.719Z,10.20
2023-01-13T14:04:07.441Z,10.20
2023-01-13T14:06:34.108Z,10.40
2023-01-13T14:09:00.702Z,10.40
2023-01-13T14:11:27.606Z,10.30
2023-01-13T14:13:54.275Z,10.20
2023-01-13T14:16:20.911Z,10.20
2023-01-13T14:18:47.693Z,10.30
2023-01-13T14:21:14.313Z,10.30
2023-01-13T14:23:40.932Z,10.30
2023-01-13T14:26:07.788Z,10.30
2023-01-13T14:28:34.391Z,10.30
2023-01-13T14:31:01.418Z,10.30
2023-01-13T14:33:28.102Z,10.40
2023-01-13T14:35:54.812Z,10.40
2023-01-13T14:38:21.926Z,10.40
2023-01-13T14:40:49.563Z,10.40
2023-01-13T14:43:16.486Z,10.40
2023-01-13T14:45:43.086Z,10.40
2023-01-13T14:48:09.674Z,10.30
2023-01-13T14:50:36.323Z,10.30
2023-01-13T14:53:04.990Z,10.30
2023-01-13T14:55:31.715Z,10.20
2023-01-13T14:57:58.361Z,10.20
2023-01-13T15:00:25.058Z,10.20
2023-01-13T15:02:53.385Z,10.30
2023-01-13T15:05:20.098Z,10.20
2023-01-13T15:07:46.721Z,10.20
2023-01-13T15:10:13.345Z,10.20
2023-01-13T15:12:39.986Z,10.10
2023-01-13T15:15:06.630Z,10.10
2023-01-13T15:17:34.600Z,10.00
2023-01-13T15:20:01.550Z,10.00
2023-01-13T15:22:29.612Z,10.00
2023-01-13T15:24:57.482Z,9.90
2023-01-13T15:27:24.068Z,9.80
2023-01-13T15:29:50.665Z,9.80
2023-01-13T15:32:17.292Z,9.70
2023-01-13T15:34:44.866Z,9.70
2023-01-13T15:37:11.473Z,9.60
2023-01-13T15:39:38.364Z,9.60
2023-01-13T15:42:23.770Z,9.50
2023-01-13T15:45:08.999Z,9.50
2023-01-13T15:47:35.647Z,9.50
2023-01-13T15:50:02.359Z,9.40
2023-01-13T15:52:29.127Z,9.40
2023-01-13T15:54:55.755Z,9.40
2023-01-13T15:57:22.592Z,9.40
2023-01-13T15:59:49.237Z,9.30
2023-01-13T16:02:18.362Z,9.30
2023-01-13T16:04:45.058Z,9.30
2023-01-13T16:07:11.695Z,9.30
2023-01-13T16:09:38.290Z,9.30
2023-01-13T16:12:04.891Z,9.20
2023-01-13T16:14:31.509Z,9.20
2023-01-13T16:16:58.087Z,9.10
2023-01-13T16:19:24.707Z,9.10
2023-01-13T16:21:51.362Z,9.10
2023-01-13T16:24:18.026Z,9.00
2023-01-13T16:26:44.663Z,9.00
2023-01-13T16:29:12.711Z,9.00
2023-01-13T16:31:39.400Z,9.00
2023-01-13T16:34:06.338Z,9.00
2023-01-13T16:36:32.953Z,9.00
2023-01-13T16:38:59.764Z,9.00
2023-01-13T16:41:26.535Z,9.00
2023-01-13T16:43:53.171Z,8.90
2023-01-13T16:46:19.839Z,8.90
2023-01-13T16:48:46.812Z,8.90
2023-01-13T16:51:13.513Z,8.90
2023-01-13T16:53:40.224Z,8.90
2023-01-13T16:56:06.934Z,8.90
2023-01-13T16:58:33.576Z,8.90
2023-01-13T17:01:00.235Z,8.90
2023-01-13T17:03:26.954Z,8.80
2023-01-13T17:05:53.658Z,8.80
2023-01-13T17:08:20.334Z,8.80
2023-01-13T17:10:46.946Z,8.80
2023-01-13T17:13:16.817Z,8.80
2023-01-13T17:15:43.978Z,8.80
2023-01-13T17:18:11.617Z,8.70
2023-01-13T17:20:38.245Z,8.70
2023-01-13T17:23:04.909Z,8.70
2023-01-13T17:25:31.494Z,8.70
2023-01-13T17:27:58.153Z,8.60
2023-01-13T17:30:24.845Z,8.50
2023-01-13T17:32:51.477Z,8.50
2023-01-13T17:35:24.545Z,8.40
2023-01-13T17:37:51.293Z,8.30
2023-01-13T17:40:18.130Z,8.30
2023-01-13T17:42:44.791Z,8.30
2023-01-13T17:45:12.396Z,8.30
2023-01-13T17:47:39.053Z,8.30
2023-01-13T17:50:05.850Z,8.20
2023-01-13T17:52:32.533Z,8.10
2023-01-13T17:54:59.102Z,8.10
2023-01-13T17:57:25.809Z,8.10
2023-01-13T17:59:52.473Z,8.00
2023-01-13T18:02:19.125Z,7.90
2023-01-13T18:04:45.878Z,7.90
2023-01-13T18:07:12.541Z,7.90
2023-01-13T18:09:39.170Z,7.80
2023-01-13T18:12:05.870Z,7.80
2023-01-13T18:14:32.456Z,7.70
2023-01-13T18:16:59.385Z,7.70
2023-01-13T18:19:44.813Z,7.70
2023-01-13T18:22:30.017Z,7.60
2023-01-13T18:25:15.643Z,7.60
2023-01-13T18:27:42.298Z,7.60
2023-01-13T18:30:09.049Z,7.60
2023-01-13T18:32:35.869Z,7.60
2023-01-13T18:35:06.696Z,7.60
2023-01-13T18:37:35.949Z,7.50
2023-01-13T18:40:02.789Z,7.50
2023-01-13T18:42:48.198Z,7.40
2023-01-13T18:45:14.789Z,7.40
2023-01-13T18:47:42.392Z,7.40
2023-01-13T18:50:09.304Z,7.40
2023-01-13T18:52:35.942Z,7.40
2023-01-13T18:55:02.615Z,7.30
2023-01-13T18:57:29.461Z,7.40
2023-01-13T18:59:57.671Z,7.40
2023-01-13T19:02:26.498Z,7.30
2023-01-13T19:04:53.894Z,7.20
2023-01-13T19:07:26.911Z,7.30
2023-01-13T19:09:55.500Z,7.20
2023-01-13T19:12:30.907Z,7.20
2023-01-13T19:14:57.684Z,7.20
2023-01-13T19:17:24.374Z,7.10
2023-01-13T19:19:51.175Z,7.10
2023-01-13T19:22:17.903Z,7.10
2023-01-13T19:24:44.755Z,7.20
2023-01-13T19:27:12.109Z,7.20
2023-01-13T19:29:43.293Z,7.20
2023-01-13T19:32:18.908Z,7.20
2023-01-13T19:34:46.836Z,7.20
2023-01-13T19:37:13.495Z,7.20
2023-01-13T19:39:40.126Z,7.20
2023-01-13T19:42:25.506Z,7.20
2023-01-13T19:45:10.665Z,7.20
2023-01-13T19:47:38.758Z,7.10
2023-01-13T19:50:06.627Z,7.10
2023-01-13T19:52:33.390Z,7.10
2023-01-13T19:55:00.097Z,7.10
2023-01-13T19:57:27.093Z,7.10
2023-01-13T19:59:53.896Z,7.10
2023-01-13T20:02:28.137Z,7.10
2023-01-13T20:04:56.018Z,7.10
2023-01-13T20:07:23.884Z,7.10
2023-01-13T20:09:50.870Z,7.10
2023-01-13T20:12:17.582Z,7.00
2023-01-13T20:14:44.320Z,7.00
2023-01-13T20:17:11.028Z,7.00
2023-01-13T20:19:37.743Z,7.00
2023-01-13T20:22:04.427Z,7.00
2023-01-13T20:24:31.327Z,7.00
2023-01-13T20:26:58.175Z,6.90
2023-01-13T20:29:24.824Z,6.80
2023-01-13T20:31:51.529Z,6.70
2023-01-13T20:34:21.573Z,6.60
2023-01-13T20:36:48.581Z,6.50
2023-01-13T20:39:15.291Z,6.50
2023-01-13T20:42:00.961Z,6.50
2023-01-13T20:44:30.549Z,6.40
2023-01-13T20:46:58.106Z,6.40
2023-01-13T20:49:24.947Z,6.40
2023-01-13T20:51:51.588Z,6.40
2023-01-13T20:54:18.426Z,6.40
2023-01-13T20:56:45.085Z,6.40
2023-01-13T20:59:11.774Z,6.40
2023-01-13T21:01:38.516Z,6.40
2023-01-13T21:04:05.993Z,6.40
2023-01-13T21:06:33.026Z,6.40
2023-01-13T21:08:59.812Z,6.40
2023-01-13T21:11:45.316Z,6.30
2023-01-13T21:14:30.480Z,6.30
2023-01-13T21:16:57.160Z,6.30
2023-01-13T21:19:23.800Z,6.20
2023-01-13T21:21:50.470Z,6.20
2023-01-13T21:24:17.244Z,6.20
2023-01-13T21:26:43.992Z,6.10
2023-01-13T21:29:10.700Z,6.10
2023-01-13T21:31:37.473Z,6.00
2023-01-13T21:34:05.277Z,6.00
2023-01-13T21:36:32.023Z,6.00
2023-01-13T21:38:58.706Z,5.90
2023-01-13T21:41:44.044Z,5.90
2023-01-13T21:44:29.519Z,5.90
2023-01-13T21:47:14.996Z,5.90
2023-01-13T21:49:44.507Z,5.90
2023-01-13T21:52:11.357Z,5.90
2023-01-13T21:54:58.028Z,6.00
2023-01-13T21:57:26.199Z,5.90
2023-01-13T21:59:53.895Z,5.90
2023-01-13T22:02:32.322Z,5.90
2023-01-13T22:04:59.151Z,5.90
2023-01-13T22:07:26.712Z,5.90
2023-01-13T22:09:53.367Z,6.00
2023-01-13T22:12:23.750Z,6.00
2023-01-13T22:14:50.664Z,6.00
2023-01-13T22:17:18.000Z,6.00
2023-01-13T22:19:45.107Z,6.00
2023-01-13T22:22:14.802Z,6.00
2023-01-13T22:24:43.832Z,6.00
2023-01-13T22:27:10.742Z,6.10
2023-01-13T22:29:37.809Z,6.10
2023-01-13T22:32:04.570Z,6.10
2023-01-13T22:34:31.226Z,6.20
2023-01-13T22:36:58.075Z,6.20
2023-01-13T22:39:24.671Z,6.30
2023-01-13T22:41:51.337Z,6.30
2023-01-13T22:44:18.053Z,6.30
2023-01-13T22:46:44.819Z,6.30
2023-01-13T22:49:11.427Z,6.40
2023-01-13T22:51:38.077Z,6.40
2023-01-13T22:54:04.702Z,6.40
2023-01-13T22:56:31.369Z,6.50
2023-01-13T22:58:58.055Z,6.50
2023-01-13T23:01:24.747Z,6.60
2023-01-13T23:03:51.546Z,6.60
2023-01-13T23:06:18.446Z,6.60
2023-01-13T23:08:45.318Z,6.60
2023-01-13T23:11:12.007Z,6.60
2023-01-13T23:13:39.428Z,6.70
2023-01-13T23:16:06.059Z,6.70
2023-01-13T23:18:32.747Z,6.80
2023-01-13T23:20:59.428Z,6.80
2023-01-13T23:23:26.078Z,6.80
2023-01-13T23:25:56.557Z,6.80
2023-01-13T23:28:23.282Z,6.80
2023-01-13T23:30:50.075Z,6.90
2023-01-13T23:33:16.820Z,6.90
2023-01-13T23:35:43.476Z,6.90
2023-01-13T23:38:10.224Z,7.00
2023-01-13T23:40:38.599Z,7.00
2023-01-13T23:43:05.511Z,7.10
2023-01-13T23:45:32.201Z,7.10
2023-01-13T23:47:59.063Z,7.20
2023-01-13T23:50:25.853Z,7.20
2023-01-13T23:52:52.684Z,7.10
2023-01-13T23:55:19.369Z,7.20
2023-01-13T23:57:46.092Z,7.20
